createdAt,value
2022-08-27T00:01:24.644Z,21.23
2022-08-27T00:03:54.701Z,20.77
2022-08-27T00:06:23.849Z,22.93
2022-08-27T00:08:52.510Z,28.50
2022-08-27T00:11:22.637Z,28.97
2022-08-27T00:13:51.245Z,35.57
2022-08-27T00:16:20.903Z,30.10
2022-08-27T00:18:49.412Z,33.73
2022-08-27T00:21:17.825Z,34.80
2022-08-27T00:23:45.830Z,37.10
2022-08-27T00:26:14.748Z,35.03
2022-08-27T00:28:43.012Z,31.43
2022-08-27T00:31:12.326Z,29.23
2022-08-27T00:33:42.650Z,31.33
2022-08-27T00:36:11.717Z,36.20
2022-08-27T00:38:41.156Z,26.97
2022-08-27T00:41:12.579Z,30.00
2022-08-27T00:43:48.059Z,34.40
2022-08-27T00:46:22.650Z,34.73
2022-08-27T00:48:54.493Z,32.83
2022-08-27T00:51:22.778Z,28.50
2022-08-27T00:53:51.743Z,31.93
2022-08-27T00:56:23.595Z,40.97
2022-08-27T00:58:53.970Z,28.20
2022-08-27T01:01:25.584Z,32.63
2022-08-27T01:04:02.064Z,31.60
2022-08-27T01:06:34.492Z,31.50
2022-08-27T01:09:09.258Z,34.13
2022-08-27T01:11:38.014Z,38.73
2022-08-27T01:14:06.782Z,29.97
2022-08-27T01:16:37.976Z,32.40
2022-08-27T01:19:12.099Z,27.77
2022-08-27T01:21:48.091Z,33.80
2022-08-27T01:24:33.749Z,27.20
2022-08-27T01:27:03.354Z,31.83
2022-08-27T01:29:31.965Z,29.40
2022-08-27T01:32:06.511Z,30.67
2022-08-27T01:34:34.343Z,35.83
2022-08-27T01:37:02.149Z,41.93
2022-08-27T01:39:31.815Z,32.63
2022-08-27T01:42:04.854Z,34.00
2022-08-27T01:44:43.651Z,35.40
2022-08-27T01:47:11.379Z,33.67
2022-08-27T01:49:39.110Z,30.00
2022-08-27T01:52:06.987Z,34.90
2022-08-27T01:54:36.795Z,30.97
2022-08-27T01:57:05.403Z,31.40
2022-08-27T01:59:39.383Z,34.87
2022-08-27T02:02:09.186Z,28.33
2022-08-27T02:04:36.965Z,33.27
2022-08-27T02:07:05.786Z,35.77
2022-08-27T02:09:33.666Z,37.85
2022-08-27T02:12:03.843Z,36.20
2022-08-27T02:14:31.619Z,34.77
2022-08-27T02:16:59.380Z,44.30
2022-08-27T02:19:27.551Z,32.57
2022-08-27T02:21:56.775Z,33.03
2022-08-27T02:24:24.512Z,38.77
2022-08-27T02:26:52.277Z,34.70
2022-08-27T02:29:21.487Z,32.10
2022-08-27T02:31:50.700Z,31.17
2022-08-27T02:34:18.996Z,33.97
2022-08-27T02:36:47.527Z,34.17
2022-08-27T02:39:15.242Z,31.13
2022-08-27T02:41:43.044Z,38.27
2022-08-27T02:44:11.273Z,32.50
2022-08-27T02:46:43.254Z,35.97
2022-08-27T02:49:11.475Z,29.67
2022-08-27T02:51:39.390Z,32.93
2022-08-27T02:54:09.541Z,30.17
2022-08-27T02:56:38.891Z,31.30
2022-08-27T02:59:06.802Z,29.40
2022-08-27T03:01:34.707Z,30.43
2022-08-27T03:04:04.210Z,30.23
2022-08-27T03:06:32.012Z,28.70
2022-08-27T03:08:59.992Z,35.10
2022-08-27T03:11:27.826Z,30.67
2022-08-27T03:13:55.745Z,35.03
2022-08-27T03:16:23.596Z,31.70
2022-08-27T03:18:51.406Z,25.73
2022-08-27T03:21:23.870Z,38.77
2022-08-27T03:23:52.044Z,24.83
2022-08-27T03:26:20.234Z,31.20
2022-08-27T03:28:48.343Z,35.50
2022-08-27T03:31:27.235Z,30.33
2022-08-27T03:33:57.033Z,30.80
2022-08-27T03:36:26.325Z,28.73
2022-08-27T03:38:54.397Z,27.70
2022-08-27T03:41:22.736Z,29.70
2022-08-27T03:44:07.654Z,36.00
2022-08-27T03:46:35.424Z,27.90
2022-08-27T03:49:03.193Z,31.90
2022-08-27T03:51:33.437Z,27.80
2022-08-27T03:54:01.194Z,30.90
2022-08-27T03:56:30.227Z,23.93
2022-08-27T03:58:57.972Z,27.10
2022-08-27T04:01:26.442Z,31.00
2022-08-27T04:03:54.321Z,27.97
2022-08-27T04:06:22.625Z,25.73
2022-08-27T04:08:51.755Z,29.70
2022-08-27T04:11:19.516Z,29.20
2022-08-27T04:13:47.301Z,34.15
2022-08-27T04:16:15.170Z,34.70
2022-08-27T04:18:42.990Z,28.43
2022-08-27T04:21:12.980Z,32.33
2022-08-27T04:23:41.024Z,37.20
2022-08-27T04:26:11.916Z,29.43
2022-08-27T04:28:40.385Z,34.67
2022-08-27T04:31:16.252Z,35.60
2022-08-27T04:33:51.229Z,28.20
2022-08-27T04:36:20.446Z,31.80
2022-08-27T04:38:48.342Z,32.17
2022-08-27T04:41:21.091Z,28.43
2022-08-27T04:43:50.132Z,32.57
2022-08-27T04:46:22.854Z,31.97
2022-08-27T04:48:50.972Z,34.73
2022-08-27T04:51:19.001Z,41.70
2022-08-27T04:53:49.520Z,35.17
2022-08-27T04:56:21.730Z,26.73
2022-08-27T04:58:50.374Z,30.13
2022-08-27T05:01:19.809Z,26.13
2022-08-27T05:03:47.687Z,26.00
2022-08-27T05:06:16.317Z,26.20
2022-08-27T05:08:44.667Z,28.90
2022-08-27T05:11:14.972Z,24.87
2022-08-27T05:13:44.633Z,23.53
2022-08-27T05:16:15.090Z,25.83
2022-08-27T05:18:48.281Z,26.80
2022-08-27T05:21:20.411Z,28.90
2022-08-27T05:23:48.673Z,32.93
2022-08-27T05:26:16.869Z,26.67
2022-08-27T05:28:46.354Z,28.13
2022-08-27T05:31:15.973Z,31.40
2022-08-27T05:33:44.648Z,25.60
2022-08-27T05:36:17.283Z,24.50
2022-08-27T05:38:45.162Z,28.30
2022-08-27T05:41:14.740Z,28.50
2022-08-27T05:43:49.853Z,24.50
2022-08-27T05:46:20.789Z,26.20
2022-08-27T05:48:49.547Z,28.67
2022-08-27T05:51:25.735Z,30.33
2022-08-27T05:53:56.569Z,27.53
2022-08-27T05:56:26.372Z,25.50
2022-08-27T05:59:13.024Z,25.93
2022-08-27T06:01:43.383Z,31.40
2022-08-27T06:04:11.993Z,25.03
2022-08-27T06:06:47.181Z,25.73
2022-08-27T06:09:17.556Z,32.43
2022-08-27T06:11:45.621Z,27.60
2022-08-27T06:14:15.075Z,25.97
2022-08-27T06:16:43.950Z,31.07
2022-08-27T06:19:12.569Z,28.50
2022-08-27T06:21:40.944Z,26.43
2022-08-27T06:24:09.553Z,24.93
2022-08-27T06:26:37.304Z,31.67
2022-08-27T06:29:05.999Z,27.07
2022-08-27T06:31:35.808Z,26.80
2022-08-27T06:34:07.590Z,19.70
2022-08-27T06:36:38.397Z,20.73
2022-08-27T06:39:07.059Z,22.80
2022-08-27T06:41:35.893Z,23.83
2022-08-27T06:44:04.343Z,27.40
2022-08-27T06:46:32.149Z,29.00
2022-08-27T06:49:02.078Z,29.63
2022-08-27T06:51:32.485Z,24.90
2022-08-27T06:54:02.017Z,29.20
2022-08-27T06:56:31.029Z,26.30
2022-08-27T06:59:00.759Z,26.30
2022-08-27T07:01:30.712Z,26.53
2022-08-27T07:03:59.979Z,25.27
2022-08-27T07:06:31.646Z,29.40
2022-08-27T07:09:00.163Z,22.97
2022-08-27T07:11:29.458Z,23.27
2022-08-27T07:13:57.222Z,20.90
2022-08-27T07:16:27.009Z,26.00
2022-08-27T07:18:56.339Z,25.20
2022-08-27T07:21:25.019Z,22.27
2022-08-27T07:23:55.897Z,19.27
2022-08-27T07:26:24.959Z,19.00
2022-08-27T07:28:53.524Z,23.77
2022-08-27T07:31:24.148Z,24.00
2022-08-27T07:33:53.336Z,26.93
2022-08-27T07:36:21.450Z,26.40
2022-08-27T07:38:57.012Z,23.63
2022-08-27T07:41:32.091Z,29.77
2022-08-27T07:44:14.514Z,23.93
2022-08-27T07:46:47.925Z,29.63
2022-08-27T07:49:16.405Z,28.57
2022-08-27T07:51:44.311Z,26.87
2022-08-27T07:54:12.121Z,24.63
2022-08-27T07:56:41.299Z,26.40
2022-08-27T07:59:09.595Z,26.83
2022-08-27T08:01:37.662Z,31.80
2022-08-27T08:04:05.792Z,24.73
2022-08-27T08:06:33.545Z,25.73
2022-08-27T08:09:01.713Z,23.40
2022-08-27T08:11:30.138Z,23.30
2022-08-27T08:13:59.190Z,24.27
2022-08-27T08:16:31.581Z,28.20
2022-08-27T08:19:00.419Z,28.50
2022-08-27T08:21:28.478Z,34.37
2022-08-27T08:23:56.263Z,31.27
2022-08-27T08:26:24.449Z,30.73
2022-08-27T08:28:52.238Z,21.10
2022-08-27T08:31:21.733Z,29.00
2022-08-27T08:33:49.511Z,26.67
2022-08-27T08:36:18.842Z,23.67
2022-08-27T08:38:47.808Z,24.20
2022-08-27T08:41:38.774Z,26.20
2022-08-27T08:44:14.542Z,27.60
2022-08-27T08:46:50.874Z,22.80
2022-08-27T08:49:31.561Z,26.10
2022-08-27T08:52:09.770Z,29.80
2022-08-27T08:54:38.541Z,32.50
2022-08-27T08:57:12.571Z,33.30
2022-08-27T08:59:55.719Z,27.10
2022-08-27T09:02:24.826Z,28.23
2022-08-27T09:04:54.887Z,22.63
2022-08-27T09:07:30.280Z,21.77
2022-08-27T09:10:04.557Z,31.73
2022-08-27T09:12:33.479Z,28.80
2022-08-27T09:15:06.257Z,32.50
2022-08-27T09:17:38.451Z,26.15
2022-08-27T09:20:07.864Z,24.47
2022-08-27T09:22:50.234Z,33.13
2022-08-27T09:25:21.871Z,29.23
2022-08-27T09:27:56.610Z,25.83
2022-08-27T09:30:30.497Z,26.17
2022-08-27T09:33:02.607Z,26.70
2022-08-27T09:35:39.982Z,27.50
2022-08-27T09:38:08.019Z,27.13
2022-08-27T09:40:42.631Z,24.90
2022-08-27T09:43:22.390Z,22.40
2022-08-27T09:45:53.070Z,24.07
2022-08-27T09:48:25.885Z,26.80
2022-08-27T09:50:55.960Z,24.07
2022-08-27T09:53:27.905Z,26.27
2022-08-27T09:55:58.285Z,28.73
2022-08-27T09:58:29.406Z,25.80
2022-08-27T10:01:02.834Z,22.23
2022-08-27T10:03:33.515Z,25.03
2022-08-27T10:06:01.652Z,29.53
2022-08-27T10:08:36.712Z,26.63
2022-08-27T10:11:07.665Z,26.57
2022-08-27T10:13:52.859Z,25.40
2022-08-27T10:16:37.814Z,27.93
2022-08-27T10:19:19.532Z,26.50
2022-08-27T10:21:53.610Z,19.13
2022-08-27T10:24:29.003Z,28.80
2022-08-27T10:27:07.795Z,25.33
2022-08-27T10:29:43.016Z,23.27
2022-08-27T10:32:20.250Z,22.30
2022-08-27T10:35:05.078Z,19.17
2022-08-27T10:37:46.023Z,26.13
2022-08-27T10:40:19.419Z,23.40
2022-08-27T10:42:57.803Z,20.67
2022-08-27T10:45:34.619Z,19.70
2022-08-27T10:48:11.033Z,18.80
2022-08-27T10:50:47.743Z,19.83
2022-08-27T10:53:27.574Z,19.90
2022-08-27T10:56:15.778Z,21.87
2022-08-27T10:59:06.936Z,24.90
2022-08-27T11:01:44.703Z,21.17
2022-08-27T11:04:19.287Z,22.60
2022-08-27T11:06:57.900Z,22.40
2022-08-27T11:09:36.067Z,21.13
2022-08-27T11:12:14.218Z,23.73
2022-08-27T11:14:50.670Z,26.03
2022-08-27T11:17:26.659Z,23.90
2022-08-27T11:20:04.539Z,20.57
2022-08-27T11:22:38.006Z,20.17
2022-08-27T11:25:14.107Z,21.80
2022-08-27T11:27:42.708Z,21.93
2022-08-27T11:30:18.892Z,18.33
2022-08-27T11:32:54.764Z,20.37
2022-08-27T11:35:31.676Z,19.83
2022-08-27T11:38:21.354Z,23.83
2022-08-27T11:41:02.731Z,24.20
2022-08-27T11:43:35.611Z,22.00
2022-08-27T11:46:06.280Z,18.40
2022-08-27T11:48:36.965Z,21.75
2022-08-27T11:51:08.777Z,19.93
2022-08-27T11:53:51.930Z,20.97
2022-08-27T11:56:39.657Z,17.67
2022-08-27T11:59:22.652Z,18.70
2022-08-27T12:01:52.286Z,19.60
2022-08-27T12:04:34.643Z,16.50
2022-08-27T12:07:05.717Z,17.73
2022-08-27T12:09:55.141Z,21.30
2022-08-27T12:12:34.170Z,16.03
2022-08-27T12:15:06.742Z,23.53
2022-08-27T12:17:43.382Z,17.17
2022-08-27T12:20:22.895Z,21.47
2022-08-27T12:23:20.469Z,23.90
2022-08-27T12:26:01.478Z,20.13
2022-08-27T12:28:29.322Z,18.97
2022-08-27T12:30:58.562Z,16.17
2022-08-27T12:33:31.437Z,19.13
2022-08-27T12:36:07.251Z,22.93
2022-08-27T12:38:43.794Z,21.23
2022-08-27T12:41:27.663Z,18.00
2022-08-27T12:44:05.117Z,18.90
2022-08-27T12:46:33.443Z,18.60
2022-08-27T12:49:35.831Z,18.60
2022-08-27T12:51:53.466Z,20.43
2022-08-27T12:54:32.295Z,20.73
2022-08-27T12:57:06.319Z,18.37
2022-08-27T13:00:02.231Z,18.23
2022-08-27T13:02:48.594Z,24.80
2022-08-27T13:05:20.988Z,17.00
2022-08-27T13:07:50.959Z,15.33
2022-08-27T13:10:25.159Z,15.63
2022-08-27T13:13:04.706Z,15.03
2022-08-27T13:15:34.047Z,17.00
2022-08-27T13:18:03.596Z,15.23
2022-08-27T13:20:33.127Z,15.93
2022-08-27T13:23:00.871Z,14.97
2022-08-27T13:25:30.821Z,21.63
2022-08-27T13:28:07.663Z,19.67
2022-08-27T13:30:37.859Z,16.47
2022-08-27T13:33:07.707Z,21.33
2022-08-27T13:35:37.524Z,20.87
2022-08-27T13:38:07.034Z,14.87
2022-08-27T13:40:37.007Z,20.63
2022-08-27T13:43:08.712Z,20.27
2022-08-27T13:45:39.781Z,20.03
2022-08-27T13:48:08.534Z,16.80
2022-08-27T13:50:38.100Z,18.97
2022-08-27T13:53:26.220Z,19.33
2022-08-27T13:55:55.870Z,17.27
2022-08-27T13:58:27.152Z,15.70
2022-08-27T14:01:07.702Z,18.43
2022-08-27T14:03:39.015Z,19.23
2022-08-27T14:06:08.204Z,14.67
2022-08-27T14:08:37.300Z,18.30
2022-08-27T14:11:08.015Z,17.23
2022-08-27T14:13:43.500Z,16.40
2022-08-27T14:16:25.050Z,20.60
2022-08-27T14:18:59.262Z,15.13
2022-08-27T14:21:27.398Z,17.60
2022-08-27T14:23:55.854Z,14.33
2022-08-27T14:26:24.053Z,14.10
2022-08-27T14:28:51.866Z,11.73
2022-08-27T14:31:21.122Z,20.13
2022-08-27T14:33:48.933Z,13.67
2022-08-27T14:36:17.211Z,16.70
2022-08-27T14:38:46.977Z,11.57
2022-08-27T14:41:14.951Z,11.00
2022-08-27T14:43:49.102Z,12.00
2022-08-27T14:46:25.230Z,11.93
2022-08-27T14:48:53.992Z,12.60
2022-08-27T14:51:25.510Z,12.73
2022-08-27T14:53:53.705Z,10.70
2022-08-27T14:56:22.461Z,13.90
2022-08-27T14:58:50.938Z,14.67
2022-08-27T15:01:23.103Z,14.13
2022-08-27T15:03:51.749Z,11.60
2022-08-27T15:06:22.055Z,14.43
2022-08-27T15:08:52.468Z,13.30
2022-08-27T15:11:23.621Z,12.53
2022-08-27T15:13:51.563Z,12.60
2022-08-27T15:16:30.759Z,12.27
2022-08-27T15:19:01.082Z,13.07
2022-08-27T15:21:30.386Z,10.47
2022-08-27T15:24:01.831Z,12.93
2022-08-27T15:26:30.783Z,10.10
2022-08-27T15:29:01.662Z,11.43
2022-08-27T15:31:33.354Z,10.27
2022-08-27T15:34:01.096Z,11.00
2022-08-27T15:36:28.875Z,12.63
2022-08-27T15:38:56.769Z,11.63
2022-08-27T15:41:28.647Z,10.70
2022-08-27T15:43:57.715Z,15.03
2022-08-27T15:46:26.457Z,13.93
2022-08-27T15:48:55.611Z,14.90
2022-08-27T15:51:32.825Z,10.20
2022-08-27T15:54:01.603Z,13.30
2022-08-27T15:56:34.296Z,9.00
2022-08-27T15:59:02.425Z,27.77
2022-08-27T16:01:32.874Z,70.47
2022-08-27T16:04:03.036Z,51.67
2022-08-27T16:06:31.028Z,14.77
2022-08-27T16:08:58.816Z,23.00
2022-08-27T16:11:26.630Z,10.20
2022-08-27T16:13:55.563Z,12.20
2022-08-27T16:16:26.878Z,12.70
2022-08-27T16:18:54.938Z,11.70
2022-08-27T16:21:24.058Z,10.00
2022-08-27T16:23:51.996Z,14.97
2022-08-27T16:26:19.754Z,11.57
2022-08-27T16:28:47.481Z,13.43
2022-08-27T16:31:15.920Z,12.57
2022-08-27T16:33:44.451Z,10.93
2022-08-27T16:36:12.897Z,10.67
2022-08-27T16:38:42.447Z,14.60
2022-08-27T16:41:10.586Z,14.67
2022-08-27T16:43:39.687Z,17.10
2022-08-27T16:46:08.202Z,14.13
2022-08-27T16:49:01.112Z,16.10
2022-08-27T16:51:33.188Z,16.83
2022-08-27T16:54:06.602Z,18.23
2022-08-27T16:56:37.649Z,11.83
2022-08-27T16:59:06.534Z,12.27
2022-08-27T17:01:35.161Z,14.03
2022-08-27T17:04:17.270Z,10.63
2022-08-27T17:06:52.368Z,12.37
2022-08-27T17:09:21.509Z,11.63
2022-08-27T17:12:00.877Z,14.00
2022-08-27T17:14:37.880Z,13.13
2022-08-27T17:17:06.350Z,14.67
2022-08-27T17:19:36.978Z,12.23
2022-08-27T17:22:05.351Z,18.60
2022-08-27T17:24:34.423Z,10.07
2022-08-27T17:27:02.647Z,13.37
2022-08-27T17:29:30.373Z,15.70
2022-08-27T17:31:58.089Z,12.13
2022-08-27T17:34:26.613Z,16.40
2022-08-27T17:36:54.960Z,16.20
2022-08-27T17:39:22.743Z,15.43
2022-08-27T17:41:53.365Z,12.00
2022-08-27T17:44:24.376Z,12.27
2022-08-27T17:46:54.071Z,14.50
2022-08-27T17:49:22.689Z,15.37
2022-08-27T17:51:51.911Z,19.87
2022-08-27T17:54:28.969Z,11.90
2022-08-27T17:56:58.337Z,12.53
2022-08-27T17:59:26.273Z,16.60
2022-08-27T18:01:54.547Z,16.20
2022-08-27T18:04:22.515Z,13.30
2022-08-27T18:06:50.297Z,11.87
2022-08-27T18:09:18.073Z,13.97
2022-08-27T18:11:46.537Z,11.20
2022-08-27T18:14:18.410Z,15.50
2022-08-27T18:16:46.473Z,13.07
2022-08-27T18:19:14.355Z,15.90
2022-08-27T18:21:46.417Z,11.83
2022-08-27T18:24:15.373Z,10.23
2022-08-27T18:26:44.247Z,13.00
2022-08-27T18:29:13.433Z,14.00
2022-08-27T18:31:43.901Z,10.10
2022-08-27T18:34:11.614Z,9.43
2022-08-27T18:36:39.339Z,12.23
2022-08-27T18:39:07.166Z,12.43
2022-08-27T18:41:35.057Z,15.80
2022-08-27T18:44:04.640Z,14.30
2022-08-27T18:46:46.234Z,11.60
2022-08-27T18:49:14.016Z,14.27
2022-08-27T18:51:43.498Z,10.27
2022-08-27T18:54:11.860Z,16.00
2022-08-27T18:56:39.622Z,15.37
2022-08-27T18:59:07.381Z,12.40
2022-08-27T19:01:35.271Z,12.53
2022-08-27T19:04:05.739Z,17.87
2022-08-27T19:06:33.689Z,10.10
2022-08-27T19:09:02.123Z,13.37
2022-08-27T19:11:29.994Z,11.50
2022-08-27T19:13:57.723Z,12.73
2022-08-27T19:16:32.818Z,14.00
2022-08-27T19:19:00.629Z,12.50
2022-08-27T19:21:29.701Z,13.70
2022-08-27T19:23:58.207Z,14.73
2022-08-27T19:26:27.279Z,9.50
2022-08-27T19:28:55.129Z,14.13
2022-08-27T19:31:22.992Z,12.73
2022-08-27T19:33:51.984Z,13.53
2022-08-27T19:36:21.412Z,16.90
2022-08-27T19:38:52.292Z,12.77
2022-08-27T19:41:22.874Z,18.30
2022-08-27T19:43:53.767Z,17.13
2022-08-27T19:46:24.186Z,13.83
2022-08-27T19:48:52.236Z,15.30
2022-08-27T19:51:20.451Z,12.57
2022-08-27T19:53:48.470Z,16.23
2022-08-27T19:56:18.309Z,11.70
2022-08-27T19:58:46.450Z,12.97
2022-08-27T20:01:14.404Z,13.53
2022-08-27T20:03:42.299Z,10.73
2022-08-27T20:06:10.436Z,15.17
2022-08-27T20:08:38.172Z,11.07
2022-08-27T20:11:06.005Z,12.60
2022-08-27T20:13:35.587Z,11.83
2022-08-27T20:16:06.015Z,11.57
2022-08-27T20:18:36.225Z,12.07
2022-08-27T20:21:05.782Z,14.40
2022-08-27T20:23:34.148Z,10.83
2022-08-27T20:26:02.059Z,13.00
2022-08-27T20:28:45.280Z,13.57
2022-08-27T20:31:15.338Z,11.17
2022-08-27T20:33:43.267Z,10.17
2022-08-27T20:36:12.827Z,14.50
2022-08-27T20:38:40.860Z,9.33
2022-08-27T20:41:09.097Z,13.13
2022-08-27T20:43:36.907Z,12.80
2022-08-27T20:46:05.209Z,14.63
2022-08-27T20:48:34.367Z,15.07
2022-08-27T20:51:02.277Z,12.23
2022-08-27T20:53:30.013Z,13.50
2022-08-27T20:55:57.729Z,13.83
2022-08-27T20:58:43.174Z,13.67
2022-08-27T21:01:11.676Z,8.73
2022-08-27T21:03:41.041Z,13.17
2022-08-27T21:06:08.944Z,14.50
2022-08-27T21:08:39.145Z,13.83
2022-08-27T21:11:11.832Z,12.63
2022-08-27T21:13:55.268Z,13.93
2022-08-27T21:16:23.924Z,11.30
2022-08-27T21:18:53.934Z,13.47
2022-08-27T21:21:22.083Z,14.80
2022-08-27T21:23:50.053Z,21.47
2022-08-27T21:26:19.541Z,9.20
2022-08-27T21:28:47.237Z,14.80
2022-08-27T21:31:14.979Z,12.20
2022-08-27T21:33:42.693Z,7.87
2022-08-27T21:36:12.456Z,8.23
2022-08-27T21:38:40.584Z,10.13
2022-08-27T21:41:08.441Z,14.70
2022-08-27T21:43:36.677Z,8.13
2022-08-27T21:46:05.823Z,10.70
2022-08-27T21:48:33.552Z,15.13
2022-08-27T21:51:08.209Z,13.20
2022-08-27T21:53:37.966Z,13.20
2022-08-27T21:56:06.018Z,8.83
2022-08-27T21:58:34.711Z,11.47
2022-08-27T22:01:04.251Z,8.23
2022-08-27T22:03:33.960Z,12.73
2022-08-27T22:06:01.726Z,10.17
2022-08-27T22:08:29.483Z,12.07
2022-08-27T22:11:00.091Z,12.03
2022-08-27T22:13:28.162Z,8.77
2022-08-27T22:15:56.069Z,13.77
2022-08-27T22:18:24.050Z,11.33
2022-08-27T22:20:52.770Z,13.73
2022-08-27T22:23:21.071Z,9.93
2022-08-27T22:25:49.474Z,13.47
2022-08-27T22:28:18.743Z,9.27
2022-08-27T22:30:46.615Z,11.60
2022-08-27T22:33:15.456Z,11.37
2022-08-27T22:35:43.583Z,9.80
2022-08-27T22:38:12.215Z,10.50
2022-08-27T22:40:40.543Z,14.17
2022-08-27T22:43:08.634Z,11.50
2022-08-27T22:45:37.967Z,14.23
2022-08-27T22:48:05.902Z,12.63
2022-08-27T22:50:33.882Z,12.20
2022-08-27T22:53:01.737Z,11.77
2022-08-27T22:55:29.771Z,16.63
2022-08-27T22:57:57.856Z,18.20
2022-08-27T23:00:29.047Z,15.50
2022-08-27T23:03:00.573Z,16.93
2022-08-27T23:05:40.451Z,12.83
2022-08-27T23:08:12.446Z,14.87
2022-08-27T23:10:41.083Z,12.60
2022-08-27T23:13:09.650Z,10.20
2022-08-27T23:15:38.514Z,12.03
2022-08-27T23:18:08.186Z,10.20
2022-08-27T23:20:36.274Z,13.90
2022-08-27T23:23:04.118Z,13.07
2022-08-27T23:25:49.406Z,10.73
2022-08-27T23:28:17.607Z,11.43
2022-08-27T23:30:46.578Z,9.73
2022-08-27T23:33:16.259Z,11.87
2022-08-27T23:35:47.986Z,13.70
2022-08-27T23:38:16.741Z,16.50
2022-08-27T23:40:45.436Z,11.90
2022-08-27T23:43:14.096Z,10.80
2022-08-27T23:45:43.432Z,12.77
2022-08-27T23:48:12.936Z,15.07
2022-08-27T23:50:42.507Z,22.10
2022-08-27T23:53:10.858Z,11.40
2022-08-27T23:55:40.324Z,11.07
2022-08-27T23:58:08.803Z,19.03
